Flight Track Log - Related Links

Times and Time Zones

All times are in EDT time to prevent confusion due to time zone crossing. See the LXJ545 flight status page for this flight to view local times or setup timezone preferences in your user account.

Time Position Orientation Groundspeed Altitude Reporting Facility
EDT Latitude Longitude Course Direction KTS MPH feet Rate Location/Type
Sun 07:55:48 PM 32.3167 -115.4028 321° Northwest 464 534 42,900  Level Los Angeles Center
Sun 07:56:51 PM 32.4256 -115.4839 328° Northwest 464 534 43,000 48 Climbing Los Angeles Center
Sun 07:57:53 PM 32.5339 -115.5644 328° Northwest 462 532 43,000  Level Los Angeles Center
Sun 07:58:55 PM 32.6400 -115.6486 326° Northwest 462 532 43,000 -339 Level Los Angeles Center
Sun 07:59:57 PM 32.7142 -115.7703 306° West 464 534 42,300 -1,258 Descending Los Angeles Center
Sun 08:00:59 PM 32.7819 -115.8969 302° West 459 528 40,400 -2,710 Descending Los Angeles Center
Sun 08:01:00 PM 32.3420 -116.5547 321° Northwest  Level Estimated
Sun 08:02:01 PM 32.8628 -116.0497 302° West 463 533 36,700  Level Los Angeles Center
Sun 08:03:03 PM 32.9325 -116.1819 302° West 481 554 33,200 -3,360 Descending Los Angeles Center
Sun 08:04:06 PM 33.0050 -116.3164 303° West 479 551 29,700 -3,552 Descending Los Angeles Center
Sun 08:05:08 PM 33.0817 -116.4664 301° West 468 539 25,800 -2,758 Descending Los Angeles Center
Sun 08:06:10 PM 33.1464 -116.5867 303° West 443 510 24,000 -1,452 Descending Los Angeles Center
Sun 08:07:12 PM 33.2344 -116.6844 317° Northwest 437 503 22,800 -1,597 Descending Los Angeles Center
Sun 08:08:14 PM 33.3272 -116.7836 318° Northwest 445 512 20,700 -1,984 Descending Los Angeles Center
Sun 08:09:16 PM 33.4147 -116.8786 318° Northwest 430 495 18,700 -1,887 Descending Los Angeles Center
Sun 08:10:18 PM 33.4994 -116.9700 318° Northwest 414 476 16,800 -1,296 Descending Los Angeles Center
Sun 08:11:21 PM 33.5900 -117.0667 318° Northwest 409 471 16,000 -425 Descending Los Angeles Center
Sun 08:12:11 PM 33.6667 -117.1500 318° Northwest 393 452 16,000  Level Southern California TRACON
Sun 08:13:11 PM 33.7500 -117.2333 320° Northwest 344 396 16,000  Level Southern California TRACON
Sun 08:14:11 PM 33.8167 -117.3167 314° West 341 392 16,000 -450 Level Southern California TRACON
Sun 08:15:11 PM 33.8833 -117.4000 314° West 339 390 15,100 -1,150 Descending Southern California TRACON
Sun 08:16:11 PM 33.9500 -117.4667 320° Northwest 319 367 13,700 -1,300 Descending Southern California TRACON
Sun 08:17:11 PM 34.0000 -117.5500 306° West 303 349 12,500 -1,500 Descending Southern California TRACON
Sun 08:18:11 PM 34.0167 -117.6500 281° West 342 394 10,700 -1,300 Descending Southern California TRACON
Sun 08:19:11 PM 34.0000 -117.7500 259° West 291 335 9,900 -1,091 Descending Southern California TRACON
Sun 08:20:12 PM 33.9833 -117.8500 259° West 294 338 8,500 -1,388 Descending Southern California TRACON
Sun 08:21:12 PM 33.9833 -117.9333 270° West 249 287 7,100 -1,300 Descending Southern California TRACON
Sun 08:22:12 PM 33.9667 -118.0167 256° West 237 273 5,900 -1,150 Descending Southern California TRACON
Sun 08:23:12 PM 33.9667 -118.1000 270° West 229 264 4,800 -1,149 Descending Southern California TRACON
Sun 08:23:46 PM 33.9631 -118.1342 263° West 233 268 4,100 -1,125 Descending Los Angeles Center
Sun 08:24:48 PM 33.9567 -118.2033 264° West 216 249 3,000 -1,016 Descending Los Angeles Center
Sun 08:25:50 PM 33.9500 -118.2656 263° West 198 228 2,000 -912 Descending Los Angeles Center
Sun 08:26:53 PM 33.9453 -118.3203 264° West 181 208 1,100 -720 Descending Los Angeles Center
Sun 08:27:55 PM 33.9408 -118.3614 263° West 145 167 500 -484 Descending Los Angeles Center
Sun 08:28:57 PM 33.9364 -118.4033 263° West 135 155 100 -387 Descending Los Angeles Center
Sun 08:30:00 PM 33.9333 -118.4000 270° West  Level FlightAware Approximate

Login

Don't have an account? Register now (free) for customized features, flight alerts, and more!